createdAt,value
2023-03-26T00:00:14.406Z,1.50
2023-03-26T00:02:44.419Z,1.15
2023-03-26T00:05:15.725Z,1.58
2023-03-26T00:07:45.758Z,1.52
2023-03-26T00:10:16.716Z,1.00
2023-03-26T00:12:46.996Z,1.60
2023-03-26T00:15:16.948Z,1.20
2023-03-26T00:17:49.428Z,1.63
2023-03-26T00:20:19.508Z,1.40
2023-03-26T00:22:49.420Z,1.30
2023-03-26T00:25:19.580Z,1.48
2023-03-26T00:27:50.776Z,1.67
2023-03-26T00:30:21.264Z,1.52
2023-03-26T00:32:53.530Z,1.70
2023-03-26T00:35:25.146Z,1.05
2023-03-26T00:37:55.227Z,1.60
2023-03-26T00:40:24.825Z,1.90
2023-03-26T00:42:54.620Z,1.73
2023-03-26T00:45:24.606Z,1.52
2023-03-26T00:47:54.513Z,1.70
2023-03-26T00:50:24.438Z,1.95
2023-03-26T00:52:56.955Z,1.63
2023-03-26T00:55:26.774Z,1.83
2023-03-26T00:57:58.499Z,1.75
2023-03-26T01:00:35.920Z,2.00
2023-03-26T01:03:07.305Z,2.00
2023-03-26T01:05:37.140Z,1.75
2023-03-26T01:08:31.877Z,1.90
2023-03-26T01:11:08.390Z,2.00
2023-03-26T01:13:40.578Z,2.05
2023-03-26T01:16:25.324Z,1.77
2023-03-26T01:18:59.838Z,1.55
2023-03-26T01:21:31.294Z,1.70
2023-03-26T01:24:03.053Z,1.77
2023-03-26T01:26:50.420Z,1.35
2023-03-26T01:30:02.951Z,1.85
2023-03-26T01:32:48.613Z,1.70
2023-03-26T01:35:21.213Z,1.48
2023-03-26T01:38:03.811Z,2.15
2023-03-26T01:40:43.790Z,2.10
2023-03-26T01:43:19.507Z,2.00
2023-03-26T01:45:51.502Z,2.20
2023-03-26T01:50:54.708Z,2.33
2023-03-26T01:53:26.574Z,2.03
2023-03-26T01:56:08.614Z,2.17
2023-03-26T01:59:27.231Z,2.03
2023-03-26T02:02:23.154Z,1.98
2023-03-26T02:05:06.381Z,2.30
2023-03-26T02:07:43.546Z,1.55
2023-03-26T02:10:24.746Z,2.08
2023-03-26T02:12:58.354Z,2.13
2023-03-26T02:15:28.340Z,1.90
2023-03-26T02:18:00.876Z,1.73
2023-03-26T02:20:31.345Z,1.90
2023-03-26T02:23:01.743Z,1.95
2023-03-26T02:25:32.236Z,1.75
2023-03-26T02:28:02.371Z,1.83
2023-03-26T02:30:34.784Z,1.75
2023-03-26T02:33:04.978Z,1.63
2023-03-26T02:35:46.967Z,1.85
2023-03-26T02:38:18.219Z,1.80
2023-03-26T02:40:48.226Z,1.98
2023-03-26T02:43:18.411Z,1.90
2023-03-26T02:45:48.356Z,1.73
2023-03-26T02:48:37.474Z,2.55
2023-03-26T02:51:19.305Z,2.22
2023-03-26T02:54:17.380Z,1.95
2023-03-26T02:56:56.869Z,2.30
2023-03-26T02:59:53.963Z,2.17
2023-03-26T03:02:39.865Z,1.63
2023-03-26T03:05:28.379Z,1.48
2023-03-26T03:08:19.400Z,1.67
2023-03-26T03:11:14.987Z,1.80
2023-03-26T03:13:47.574Z,1.95
2023-03-26T03:16:24.311Z,1.40
2023-03-26T03:18:58.369Z,2.03
2023-03-26T03:21:38.628Z,1.63
2023-03-26T03:24:10.545Z,2.17
2023-03-26T03:26:46.935Z,1.75
2023-03-26T03:29:49.095Z,1.90
2023-03-26T03:32:39.399Z,2.53
2023-03-26T03:37:58.681Z,1.50
2023-03-26T03:40:30.251Z,1.80
2023-03-26T03:43:00.251Z,1.50
2023-03-26T03:45:39.539Z,1.80
2023-03-26T03:48:13.140Z,1.70
2023-03-26T03:50:46.675Z,1.60
2023-03-26T03:53:28.443Z,2.10
2023-03-26T03:56:03.182Z,1.92
2023-03-26T03:58:55.849Z,1.98
2023-03-26T04:01:32.858Z,1.90
2023-03-26T04:04:09.048Z,2.20
2023-03-26T04:07:01.963Z,2.08
2023-03-26T04:09:39.431Z,1.80
2023-03-26T04:12:17.507Z,1.75
2023-03-26T04:14:57.585Z,1.80
2023-03-26T04:17:27.987Z,1.90
2023-03-26T04:19:59.342Z,1.65
2023-03-26T04:22:35.780Z,1.90
2023-03-26T04:25:12.062Z,1.92
2023-03-26T04:27:53.209Z,1.70
2023-03-26T04:30:54.905Z,1.80
2023-03-26T04:33:36.751Z,1.80
2023-03-26T04:36:07.891Z,1.80
2023-03-26T04:38:50.468Z,1.95
2023-03-26T04:41:27.497Z,1.70
2023-03-26T04:44:04.041Z,1.40
2023-03-26T04:46:39.558Z,1.90
2023-03-26T04:49:15.885Z,2.25
2023-03-26T04:51:47.870Z,2.42
2023-03-26T04:57:36.418Z,1.92
2023-03-26T05:00:21.589Z,1.58
2023-03-26T05:03:00.655Z,1.90
2023-03-26T05:05:31.537Z,2.03
2023-03-26T05:08:02.698Z,1.95
2023-03-26T05:10:32.989Z,2.15
2023-03-26T05:13:07.910Z,2.05
2023-03-26T05:15:40.942Z,1.88
2023-03-26T05:18:42.853Z,2.10
2023-03-26T05:21:13.182Z,1.90
2023-03-26T05:23:43.514Z,2.60
2023-03-26T05:26:23.857Z,1.85
2023-03-26T05:28:53.785Z,2.75
2023-03-26T05:31:39.048Z,2.05
2023-03-26T05:34:09.073Z,1.85
2023-03-26T05:36:39.063Z,1.90
2023-03-26T05:39:28.059Z,2.00
2023-03-26T05:42:17.772Z,1.77
2023-03-26T05:45:02.296Z,1.73
2023-03-26T05:47:34.844Z,1.98
2023-03-26T05:50:05.676Z,2.88
2023-03-26T05:52:37.561Z,1.75
2023-03-26T05:55:25.757Z,1.88
2023-03-26T05:58:15.035Z,2.22
2023-03-26T06:01:18.253Z,1.50
2023-03-26T06:04:13.189Z,1.70
2023-03-26T06:06:49.312Z,1.90
2023-03-26T06:09:19.768Z,2.30
2023-03-26T06:11:49.559Z,1.92
2023-03-26T06:14:19.303Z,2.15
2023-03-26T06:17:08.136Z,1.50
2023-03-26T06:19:57.857Z,2.38
2023-03-26T06:22:37.057Z,1.83
2023-03-26T06:25:27.186Z,2.28
2023-03-26T06:28:15.337Z,2.15
2023-03-26T06:31:05.553Z,2.03
2023-03-26T06:33:38.843Z,2.10
2023-03-26T06:36:09.471Z,2.10
2023-03-26T06:38:40.851Z,2.33
2023-03-26T06:41:11.790Z,2.05
2023-03-26T06:44:06.432Z,2.00
2023-03-26T06:46:54.672Z,1.90
2023-03-26T06:49:44.263Z,1.60
2023-03-26T06:52:41.414Z,2.15
2023-03-26T06:55:37.322Z,2.17
2023-03-26T06:58:15.266Z,1.80
2023-03-26T07:00:48.215Z,2.05
2023-03-26T07:03:37.532Z,2.60
2023-03-26T07:06:25.855Z,1.98
2023-03-26T07:09:31.439Z,1.80
2023-03-26T07:29:40.844Z,1.88
2023-03-26T07:32:50.130Z,2.00
2023-03-26T07:36:00.293Z,2.28
2023-03-26T07:45:41.437Z,2.20
2023-03-26T07:48:46.175Z,2.42
2023-03-26T08:11:56.739Z,2.17
2023-03-26T08:14:49.860Z,2.92
2023-03-26T08:17:43.861Z,2.00
2023-03-26T08:20:33.294Z,2.67
2023-03-26T08:23:18.560Z,2.83
2023-03-26T08:25:54.361Z,2.30
2023-03-26T08:28:56.646Z,2.35
2023-03-26T08:31:34.612Z,2.17
2023-03-26T08:34:04.689Z,2.60
2023-03-26T08:36:34.438Z,2.67
2023-03-26T08:39:04.133Z,3.45
2023-03-26T08:41:55.340Z,2.75
2023-03-26T08:47:42.190Z,2.63
2023-03-26T08:50:40.269Z,2.72
2023-03-26T08:53:43.418Z,2.47
2023-03-26T08:56:21.675Z,2.40
2023-03-26T08:59:38.406Z,2.45
2023-03-26T09:02:32.812Z,2.20
2023-03-26T09:05:18.208Z,2.50
2023-03-26T09:07:56.649Z,2.65
2023-03-26T09:10:35.031Z,2.63
2023-03-26T09:13:19.248Z,2.35
2023-03-26T09:16:23.661Z,2.40
2023-03-26T09:19:25.525Z,2.53
2023-03-26T09:22:17.975Z,2.65
2023-03-26T09:25:19.991Z,2.63
2023-03-26T09:28:08.057Z,2.65
2023-03-26T09:30:58.826Z,3.10
2023-03-26T09:34:03.165Z,2.72
2023-03-26T09:37:09.516Z,2.60
2023-03-26T09:40:11.263Z,2.40
2023-03-26T09:42:45.870Z,2.45
2023-03-26T09:45:52.868Z,2.25
2023-03-26T09:48:41.041Z,3.67
2023-03-26T09:51:22.620Z,2.80
2023-03-26T09:54:27.419Z,2.50
2023-03-26T09:57:29.072Z,2.33
2023-03-26T10:00:11.432Z,2.80
2023-03-26T10:03:15.088Z,2.90
2023-03-26T10:06:03.613Z,2.47
2023-03-26T10:09:00.147Z,2.50
2023-03-26T10:11:48.095Z,2.75
2023-03-26T10:14:19.352Z,3.05
2023-03-26T10:16:57.863Z,2.90
2023-03-26T10:19:38.167Z,2.45
2023-03-26T10:22:34.648Z,2.40
2023-03-26T10:25:23.940Z,2.78
2023-03-26T10:28:04.972Z,3.13
2023-03-26T10:31:01.035Z,2.70
2023-03-26T10:33:45.153Z,2.67
2023-03-26T10:36:28.068Z,2.65
2023-03-26T10:39:35.986Z,2.60
2023-03-26T10:42:21.880Z,2.90
2023-03-26T10:45:00.676Z,2.75
2023-03-26T10:48:07.287Z,2.40
2023-03-26T10:50:52.094Z,2.42
2023-03-26T10:56:39.514Z,2.67
2023-03-26T10:59:13.719Z,2.63
2023-03-26T11:01:43.546Z,1.70
2023-03-26T11:04:37.692Z,2.03
2023-03-26T11:07:08.696Z,2.88
2023-03-26T11:10:18.323Z,2.40
2023-03-26T11:13:05.042Z,2.72
2023-03-26T11:15:52.232Z,2.08
2023-03-26T11:18:34.832Z,2.05
2023-03-26T11:21:26.456Z,2.10
2023-03-26T11:24:25.976Z,1.83
2023-03-26T11:27:15.521Z,2.17
2023-03-26T11:30:17.399Z,3.00
2023-03-26T11:32:51.690Z,1.42
2023-03-26T11:35:39.429Z,2.17
2023-03-26T11:41:32.514Z,2.20
2023-03-26T11:44:28.757Z,1.40
2023-03-26T11:47:05.163Z,1.73
2023-03-26T11:49:35.100Z,1.55
2023-03-26T11:52:05.224Z,1.50
2023-03-26T11:54:35.028Z,2.05
2023-03-26T11:57:20.882Z,1.60
2023-03-26T12:00:00.624Z,1.60
2023-03-26T12:02:40.676Z,1.50
2023-03-26T12:05:27.537Z,1.30
2023-03-26T12:07:59.400Z,1.30
2023-03-26T12:10:36.006Z,1.20
2023-03-26T12:13:52.876Z,1.40
2023-03-26T12:16:23.890Z,1.75
2023-03-26T12:19:09.292Z,1.25
2023-03-26T12:21:50.788Z,1.90
2023-03-26T12:24:38.537Z,1.60
2023-03-26T12:27:23.032Z,0.90
2023-03-26T12:29:56.169Z,1.10
2023-03-26T12:32:35.619Z,1.23
2023-03-26T12:35:30.511Z,1.70
2023-03-26T12:38:40.442Z,0.93
2023-03-26T12:44:42.649Z,1.63
2023-03-26T12:44:55.788Z,1.40
2023-03-26T12:47:55.363Z,1.17
2023-03-26T12:50:17.570Z,0.93
2023-03-26T12:53:23.944Z,4.35
2023-03-26T12:56:03.328Z,1.73
2023-03-26T13:03:05.158Z,2.05
2023-03-26T13:18:45.626Z,1.05
2023-03-26T13:24:54.795Z,1.95
2023-03-26T13:27:48.050Z,1.58
2023-03-26T13:30:35.945Z,1.17
2023-03-26T13:33:39.015Z,1.83
2023-03-26T13:36:47.759Z,0.50
2023-03-26T13:39:25.750Z,0.98
2023-03-26T13:42:29.945Z,1.00
2023-03-26T13:45:05.041Z,1.10
2023-03-26T13:47:42.597Z,0.50
2023-03-26T13:50:35.581Z,1.17
2023-03-26T13:53:15.433Z,1.35
2023-03-26T13:55:50.099Z,2.67
2023-03-26T13:58:43.323Z,3.85
2023-03-26T14:01:24.714Z,0.65
2023-03-26T14:03:56.554Z,2.10
2023-03-26T14:06:47.936Z,0.80
2023-03-26T14:09:26.217Z,0.90
2023-03-26T14:11:59.224Z,1.23
2023-03-26T14:14:46.425Z,1.00
2023-03-26T14:17:26.940Z,0.45
2023-03-26T14:20:25.414Z,1.10
2023-03-26T14:23:05.269Z,1.20
2023-03-26T14:25:47.478Z,2.33
2023-03-26T14:28:28.985Z,1.05
2023-03-26T14:30:59.035Z,0.88
2023-03-26T14:34:00.782Z,0.70
2023-03-26T14:37:08.397Z,1.00
2023-03-26T14:40:16.909Z,0.70
2023-03-26T14:42:56.698Z,1.52
2023-03-26T14:46:20.255Z,0.80
2023-03-26T14:49:09.687Z,1.50
2023-03-26T14:51:47.991Z,3.17
2023-03-26T14:54:28.372Z,0.98
2023-03-26T14:57:25.271Z,1.95
2023-03-26T15:03:09.211Z,0.85
2023-03-26T15:06:00.796Z,1.13
2023-03-26T15:09:05.697Z,4.93
2023-03-26T15:12:12.891Z,3.92
2023-03-26T15:15:14.730Z,7.65
2023-03-26T15:18:00.271Z,1.98
2023-03-26T15:21:03.357Z,0.70
2023-03-26T15:26:39.293Z,1.60
2023-03-26T15:29:51.726Z,0.82
2023-03-26T15:32:50.615Z,0.55
2023-03-26T15:35:51.884Z,0.70
2023-03-26T15:38:40.045Z,0.68
2023-03-26T15:41:33.685Z,0.52
2023-03-26T15:44:27.620Z,0.80
2023-03-26T15:47:21.653Z,0.63
2023-03-26T15:50:13.562Z,0.30
2023-03-26T15:53:22.436Z,0.90
2023-03-26T15:56:33.999Z,0.32
2023-03-26T15:59:19.228Z,1.27
2023-03-26T16:02:03.726Z,0.43
2023-03-26T16:04:51.982Z,1.10
2023-03-26T16:07:54.126Z,0.60
2023-03-26T16:10:36.513Z,0.80
2023-03-26T16:13:21.536Z,0.88
2023-03-26T16:15:57.092Z,0.80
2023-03-26T16:18:34.378Z,0.52
2023-03-26T16:21:33.031Z,0.50
2023-03-26T16:24:05.535Z,0.57
2023-03-26T16:26:54.020Z,0.60
2023-03-26T16:29:29.932Z,0.30
2023-03-26T16:32:14.920Z,0.40
2023-03-26T16:35:00.260Z,0.80
2023-03-26T16:37:45.053Z,0.60
2023-03-26T16:40:21.961Z,0.65
2023-03-26T16:43:10.374Z,0.30
2023-03-26T16:45:52.083Z,0.52
2023-03-26T16:48:25.076Z,0.73
2023-03-26T16:51:24.234Z,0.70
2023-03-26T16:53:59.605Z,0.50
2023-03-26T16:56:37.169Z,0.60
2023-03-26T16:59:29.658Z,0.30
2023-03-26T17:02:25.999Z,0.30
2023-03-26T17:05:30.929Z,0.70
2023-03-26T17:08:36.570Z,0.52
2023-03-26T17:11:30.564Z,0.98
2023-03-26T17:14:27.769Z,0.52
2023-03-26T17:17:22.320Z,0.40
2023-03-26T17:20:02.564Z,0.40
2023-03-26T17:22:38.674Z,0.30
2023-03-26T17:26:08.139Z,0.25
2023-03-26T17:28:53.228Z,0.20
2023-03-26T17:31:34.760Z,0.60
2023-03-26T17:35:00.400Z,0.63
2023-03-26T17:37:38.724Z,0.55
2023-03-26T17:40:33.408Z,0.50
2023-03-26T17:43:09.797Z,0.82
2023-03-26T17:45:44.790Z,1.23
2023-03-26T17:48:38.128Z,0.82
2023-03-26T17:51:50.171Z,0.60
2023-03-26T17:54:42.598Z,0.70
2023-03-26T17:57:22.976Z,0.60
2023-03-26T17:59:57.805Z,0.70
2023-03-26T18:02:41.602Z,0.40
2023-03-26T18:05:14.825Z,0.50
2023-03-26T18:08:05.713Z,0.65
2023-03-26T18:13:40.814Z,0.55
2023-03-26T18:16:47.777Z,0.30
2023-03-26T18:19:20.619Z,0.60
2023-03-26T18:21:55.997Z,0.40
2023-03-26T18:24:37.945Z,0.60
2023-03-26T18:27:17.064Z,0.60
2023-03-26T18:30:02.132Z,0.40
2023-03-26T18:32:34.626Z,0.60
2023-03-26T18:35:25.567Z,0.50
2023-03-26T18:38:01.149Z,0.60
2023-03-26T18:40:42.512Z,0.63
2023-03-26T18:43:34.450Z,0.30
2023-03-26T18:46:05.589Z,0.20
2023-03-26T18:48:35.557Z,0.57
2023-03-26T18:51:07.897Z,1.30
2023-03-26T18:53:44.650Z,0.40
2023-03-26T18:56:32.765Z,0.60
2023-03-26T18:59:05.045Z,0.43
2023-03-26T19:01:39.230Z,0.60
2023-03-26T19:04:14.230Z,0.55
2023-03-26T19:06:45.260Z,0.60
2023-03-26T19:09:24.267Z,0.38
2023-03-26T19:12:00.758Z,0.40
2023-03-26T19:14:36.403Z,0.35
2023-03-26T19:17:09.530Z,0.40
2023-03-26T19:19:40.104Z,0.13
2023-03-26T19:22:13.020Z,0.30
2023-03-26T19:24:43.675Z,0.73
2023-03-26T19:27:14.288Z,0.40
2023-03-26T19:29:46.047Z,0.50
2023-03-26T19:32:33.340Z,0.45
2023-03-26T19:35:05.607Z,0.40
2023-03-26T19:37:36.469Z,0.50
2023-03-26T19:40:23.540Z,0.93
2023-03-26T19:42:53.433Z,1.10
2023-03-26T19:45:26.576Z,0.30
2023-03-26T19:48:11.810Z,0.30
2023-03-26T19:50:55.912Z,0.40
2023-03-26T19:53:35.901Z,0.35
2023-03-26T19:56:14.521Z,0.45
2023-03-26T19:58:44.650Z,0.43
2023-03-26T20:01:26.153Z,0.50
2023-03-26T20:04:03.263Z,0.50
2023-03-26T20:06:43.302Z,0.50
2023-03-26T20:09:15.030Z,0.63
2023-03-26T20:11:45.229Z,0.40
2023-03-26T20:14:22.724Z,0.70
2023-03-26T20:16:53.322Z,0.32
2023-03-26T20:19:23.614Z,0.70
2023-03-26T20:21:54.120Z,0.50
2023-03-26T20:24:25.900Z,0.50
2023-03-26T20:26:55.892Z,0.60
2023-03-26T20:29:25.507Z,0.45
2023-03-26T20:31:55.378Z,0.40
2023-03-26T20:34:26.095Z,0.95
2023-03-26T20:37:01.138Z,0.50
2023-03-26T20:39:32.488Z,0.50
2023-03-26T20:42:02.296Z,0.75
2023-03-26T20:44:32.608Z,0.50
2023-03-26T20:47:03.363Z,0.60
2023-03-26T20:49:33.838Z,0.50
2023-03-26T20:52:03.826Z,0.65
2023-03-26T20:54:33.752Z,0.50
2023-03-26T20:57:04.716Z,1.00
2023-03-26T20:59:35.663Z,0.70
2023-03-26T21:02:05.937Z,0.57
2023-03-26T21:04:36.162Z,0.88
2023-03-26T21:07:17.862Z,0.60
2023-03-26T21:09:49.868Z,0.50
2023-03-26T21:12:29.309Z,0.50
2023-03-26T21:14:59.604Z,0.63
2023-03-26T21:17:30.074Z,0.70
2023-03-26T21:20:09.129Z,0.57
2023-03-26T21:22:45.995Z,0.90
2023-03-26T21:25:33.258Z,0.50
2023-03-26T21:28:11.436Z,0.75
2023-03-26T21:30:41.680Z,0.70
2023-03-26T21:33:11.780Z,1.35
2023-03-26T21:35:44.139Z,0.90
2023-03-26T21:38:14.755Z,0.80
2023-03-26T21:40:58.200Z,1.00
2023-03-26T21:43:29.003Z,0.80
2023-03-26T21:45:59.712Z,0.60
2023-03-26T21:48:30.763Z,1.02
2023-03-26T21:51:04.565Z,0.88
2023-03-26T21:53:36.706Z,0.70
2023-03-26T21:56:24.477Z,0.70
2023-03-26T21:59:17.360Z,1.00
2023-03-26T22:01:58.487Z,1.05
2023-03-26T22:04:43.826Z,0.70
2023-03-26T22:07:27.452Z,1.02
2023-03-26T22:09:57.685Z,0.82
2023-03-26T22:12:27.693Z,0.70
2023-03-26T22:14:58.185Z,0.80
2023-03-26T22:17:28.763Z,1.02
2023-03-26T22:19:58.684Z,0.70
2023-03-26T22:22:29.848Z,0.80
2023-03-26T22:25:00.612Z,1.27
2023-03-26T22:27:30.447Z,0.80
2023-03-26T22:30:00.482Z,0.70
2023-03-26T22:32:32.784Z,0.90
2023-03-26T22:35:03.014Z,0.75
2023-03-26T22:37:33.158Z,0.50
2023-03-26T22:40:03.158Z,0.63
2023-03-26T22:42:32.862Z,0.70
2023-03-26T22:45:02.801Z,0.70
2023-03-26T22:47:35.554Z,1.58
2023-03-26T22:50:08.630Z,0.70
2023-03-26T22:52:38.931Z,0.98
2023-03-26T22:55:10.273Z,0.65
2023-03-26T22:57:41.054Z,0.85
2023-03-26T23:00:20.729Z,0.70
2023-03-26T23:02:50.961Z,0.70
2023-03-26T23:05:20.990Z,0.82
2023-03-26T23:07:50.634Z,0.90
2023-03-26T23:10:20.574Z,0.90
2023-03-26T23:12:50.776Z,1.00
2023-03-26T23:16:08.220Z,0.82
2023-03-26T23:18:59.578Z,0.52
2023-03-26T23:21:29.377Z,0.90
2023-03-26T23:23:59.538Z,0.90
2023-03-26T23:26:34.994Z,1.02
2023-03-26T23:29:07.944Z,0.70
2023-03-26T23:31:38.318Z,0.82
2023-03-26T23:34:08.149Z,1.17
2023-03-26T23:36:37.822Z,1.13
2023-03-26T23:39:08.172Z,1.25
2023-03-26T23:41:38.144Z,0.98
2023-03-26T23:44:08.160Z,1.17
2023-03-26T23:46:38.077Z,1.10
2023-03-26T23:49:07.953Z,1.23
2023-03-26T23:51:39.454Z,1.15
2023-03-26T23:54:09.824Z,1.67
2023-03-26T23:56:39.869Z,0.93
2023-03-26T23:59:09.575Z,1.40
